Seguimento Litoral Norte - Dezembro 2017

dopedagain

Cumulus
Registo
2 Jan 2016
Mensagens
484
Local
Fornelos - Ponte de Lima(200m)
Rio lima quase a galgar o paredão chove à 10h sem parar intensamente
5d1c4a2810d5a8f18c22f17bc8788394.jpg


Foto tiago Pereira

Enviado do meu Redmi Note 4 através de Tapatalk
 

Aristocrata

Super Célula
Registo
28 Dez 2008
Mensagens
6,166
Local
Paços de Ferreira, 292 mts
Boa noite.

Ui!
Levo um acumulado de 101,0 mm.
Aqueles minutos de passagem da frente foram mesmo intensos. Muito vento e muita muita chuva. O acumulado subiu em flecha.
E de certeza que há por aí muitos estragos...
Após a passagem da frente, o ar frio que vinha atrás levou a um tombo de 4ºC na temperatura.

Vejo com pena minha que há estragos, alguns dos quais afectam os nosso membros. :(
 

GabKoost

Nimbostratus
Registo
19 Jan 2009
Mensagens
856
Local
Longos, Caldas das Taipas (Entre Brg e Gmr) Altit
Mas afinal e o que todos queremos saber é se isto já passou. Foi só aquela rajada mais forte daquela frente?
Vai fazer mais vento como é queremos saber.

LOL.

A resposta é.....
 
  • Gosto
Reactions: joselamego

Snifa

Furacão
Registo
16 Abr 2008
Mensagens
10,244
Local
Porto-Marquês:145 m Mogadouro:749 m
Aproxima-se o "round 2"

round2.jpg
 

CptRena

Nimbostratus
Registo
16 Fev 2011
Mensagens
1,510
Local
Gafanha da Encarnação, Aveiro
----------

Interferencias Aéreas:

TAP 1966 de Lisboa ao Porto das 19H (Um ATR 72-600) arremeteu de novo para Lisboa ao não conseguir aterrar no Porto.
Acaba de chegar a Lisboa.
O TAP das 20H TAP 1970 Fez exatamente o mesmo.

Ryanair RYR36HA está com dificuldades na aproximação ao Porto a esta hora.


Agora parece que os problemas estão em LIS

LPPT 102100Z 23023G34KT 9000 -RA SCT012 BKN016 16/14 Q1005
LPPT 102200Z 22028G42KT 7000 RA FEW008 BKN012 16/15 Q1003 WS R21
 

Macuser

Cumulus
Registo
21 Jan 2013
Mensagens
111
Local
Lomar, Braga
Agora parece que os problemas estão em LIS

----------

Para já vão aterrando e Levantando seguidinhos.

Mas sim, parece que em LX está a complicar.

E a quantidade de Voos que vem a caminho, que já saíram da Europa atrasados devido ao Temporal e sobretudo Neve....

Upa Upa, noite atarefada para o pessoal do aeroporto